Aeroporto :
LOGIN :

Iscrizione | Disclaimer

   EN    FR    IT 

 










Sommario :    VFR   VFR Marginale   IFR   IFR Intensivo   IFR Molto Intensivo
Visibilità : 
Base nubi : 
>= 8 km
>= 3000ft
5 / 8 km
1000 / 3000 ft
1500m / 5 km
500 / 1000 ft
800 / 1500m
200 / 500 ft
< 800m
< 200 ft
Simboli :   Temporali  Nebbia  Neve Forte  Precipitazioni Forti  Vento > 20 kt
SIGMETs :   Varie  Temporali  Ghiacco  Turbolenza  Onda orograficha  Ceneri Vulcaniche






- Altitudine del aeroporto : -11 ft
- Codice IATA : AMS


EHAM - Amsterdam Schiphol

ULTIMO METAR :
  • 260555Z 19014KT 9999 FEW010 BKN012 09/07 Q0998 NOSIG

METARs OBSOLETI :
  • 260525Z 18011KT 9999 FEW009 BKN011 09/07 Q0998 NOSIG
  • 260455Z 19010KT 160V220 9999 FEW009 BKN011 09/08 Q0998 NOSIG
  • 260425Z 17010KT 140V200 9999 FEW010 BKN012 09/08 Q0998 NOSIG
  • 260355Z 17010KT 150V210 9999 SCT014 08/07 Q0998 TEMPO BKN014
  • 260325Z 17009KT 130V200 9999 FEW026 08/07 Q0998 NOSIG

TAF TAF EHAM
Valido dal 26 a 06 ore il 27 a 12 ore UTC


260519Z 2606/2712 19011KT 9999 BKN010
BECMG 2607/2610 SCT025
BECMG 2608/2611 21015G25KT
PROB40
TEMPO 2616/2622 5000 SHRA TSRAGS SCT018CB BKN030
BECMG 2619/2622 20012KT
PROB30
TEMPO 2622/2705 6000 SHRA SCT020CB BKN040
PROB30
TEMPO 2704/2709 BKN010



MetMap, La meteo Aeronautica in un colpo d'occhio ! - Copyright ORBIFLY Dicembre 2007 - Disclaimer

ORBIFLY MET'MAP TEAM :

Programmazione e sviluppo : Alexandra Zaïnal
Concezione : Baudouin d'Aumeries
Aiuto per la programmazione : Marc-Olivier Méhu
Supporto tecnico e logistico : Manuel Goepfert
Aiuto per la traduzione : Arnaldo La Scala

Contatto : metmap@orbifly.com




FONTI E CREDITI :

   NOAA